Buffalo, Minnesota
Current Conditions -  °F | °C
As of 3:34 AM on Sunday 23 Nov 2014 (Local Time) from KCFE Reporting Station
Haze Haze  
Wind Chill: 42°   Ceiling: 700
Heat Index: 42°   Visibility: 1.5mi
Dew Point: 40°   Wind: 0mph
Humidity: 94%   Direction: NA
Pressure: 29.43"   Gusts: NA
Location:  45.17°N, 93.88°W
Report Text: KCFE 230934Z AUTO 00000KT 1 1/2SM BR OVC007 06/05 A2943 RMK AO2 T00550046
Loading
Personal Weather Stations






























Interactive Weather Map New forecast layout! Learn more

10-Day Weather Forecast

Advertisements
Track Severe Weather on mobile